Willow Springs, Illinois
Current Conditions -  °F | °C
As of 5:53 PM on Sunday 23 Nov 2014 (Local Time) from KMDW Reporting Station
Light Rain Light Rain  
Wind Chill: 52°   Ceiling: 600
Heat Index: 52°   Visibility: 6mi
Dew Point: 51°   Wind: 7mph
Humidity: 97%   Direction: 120°ESE
Pressure: 29.37"   Gusts: NA
Location:  41.74°N, 87.86°W
Report Text: KMDW 232353Z 12006KT 6SM -RA BR OVC006 11/11 A2937 RMK AO2 SLP944 P0005 60020 T01110106 10122 20111 58043
Loading
Personal Weather Stations






























Interactive Weather Map New forecast layout! Learn more

10-Day Weather Forecast

Advertisements
Track Severe Weather on mobile